createdAt,value
2019-03-22T00:00:49.955Z,41.83
2019-03-22T00:03:21.214Z,50.58
2019-03-22T00:05:52.394Z,82.50
2019-03-22T00:08:23.563Z,558.72
2019-03-22T00:10:54.723Z,516.98
2019-03-22T00:13:25.891Z,270.75
2019-03-22T00:15:57.019Z,272.10
2019-03-22T00:18:28.794Z,226.12
2019-03-22T00:20:59.958Z,232.37
2019-03-22T00:23:31.103Z,241.20
2019-03-22T00:26:02.260Z,335.27
2019-03-22T00:28:33.397Z,321.23
2019-03-22T00:31:04.540Z,413.57
2019-03-22T00:33:35.753Z,265.20
2019-03-22T00:36:06.885Z,294.45
2019-03-22T00:38:38.050Z,175.22
2019-03-22T00:41:09.235Z,186.47
2019-03-22T00:43:40.413Z,118.82
2019-03-22T00:46:11.628Z,179.03
2019-03-22T00:48:44.913Z,198.70
2019-03-22T00:51:16.059Z,361.75
2019-03-22T00:53:47.199Z,222.40
2019-03-22T00:56:18.383Z,150.20
2019-03-22T00:58:49.528Z,230.87
2019-03-22T01:01:20.702Z,243.60
2019-03-22T01:03:51.911Z,278.55
2019-03-22T01:06:23.063Z,249.07
2019-03-22T01:08:54.281Z,170.57
2019-03-22T01:11:25.431Z,224.32
2019-03-22T01:13:56.567Z,261.05
2019-03-22T01:16:27.742Z,241.48
2019-03-22T01:18:58.919Z,187.88
2019-03-22T01:21:30.100Z,191.95
2019-03-22T01:24:01.340Z,158.97
2019-03-22T01:26:32.491Z,162.50
2019-03-22T01:29:03.647Z,158.70
2019-03-22T01:31:34.805Z,154.35
2019-03-22T01:34:05.966Z,159.82
2019-03-22T01:36:37.128Z,112.32
2019-03-22T01:39:10.124Z,104.80
2019-03-22T01:41:41.303Z,136.00
2019-03-22T01:44:12.444Z,159.52
2019-03-22T01:46:43.609Z,135.55
2019-03-22T01:49:14.763Z,116.95
2019-03-22T01:51:45.909Z,182.95
2019-03-22T01:54:17.076Z,179.40
2019-03-22T01:56:48.243Z,124.65
2019-03-22T01:59:19.413Z,182.30
2019-03-22T02:01:50.595Z,161.52
2019-03-22T02:04:22.057Z,184.48
2019-03-22T02:06:53.202Z,191.70
2019-03-22T02:09:24.465Z,141.50
2019-03-22T02:11:55.602Z,142.90
2019-03-22T02:14:26.728Z,142.25
2019-03-22T02:16:57.902Z,160.43
2019-03-22T02:19:29.059Z,151.27
2019-03-22T02:22:00.270Z,145.07
2019-03-22T02:24:31.447Z,121.07
2019-03-22T02:27:02.581Z,151.35
2019-03-22T02:29:33.724Z,151.45
2019-03-22T02:32:04.929Z,141.68
2019-03-22T02:34:36.926Z,104.97
2019-03-22T02:37:08.095Z,135.20
2019-03-22T02:39:39.517Z,108.70
2019-03-22T02:42:10.995Z,126.20
2019-03-22T02:44:42.172Z,100.27
2019-03-22T02:47:13.363Z,126.27
2019-03-22T02:49:44.505Z,141.03
2019-03-22T02:52:15.700Z,159.95
2019-03-22T02:54:46.845Z,153.80
2019-03-22T02:57:18.024Z,163.00
2019-03-22T02:59:49.199Z,136.25
2019-03-22T03:02:20.361Z,112.00
2019-03-22T03:04:51.570Z,124.20
2019-03-22T03:07:22.763Z,146.18
2019-03-22T03:09:53.996Z,181.90
2019-03-22T03:12:25.205Z,139.47
2019-03-22T03:14:56.359Z,141.75
2019-03-22T03:17:27.515Z,155.82
2019-03-22T03:19:58.645Z,171.37
2019-03-22T03:22:29.836Z,217.18
2019-03-22T03:25:00.964Z,252.28
2019-03-22T03:27:32.105Z,145.40
2019-03-22T03:30:03.309Z,172.95
2019-03-22T03:32:34.499Z,195.05
2019-03-22T03:35:06.023Z,148.62
2019-03-22T03:37:37.221Z,279.55
2019-03-22T03:40:10.056Z,263.75
2019-03-22T03:42:41.255Z,259.10
2019-03-22T03:45:36.288Z,221.05
2019-03-22T03:48:09.710Z,158.65
2019-03-22T03:50:40.956Z,236.15
2019-03-22T03:53:12.138Z,212.60
2019-03-22T03:55:43.350Z,296.73
2019-03-22T03:58:14.526Z,231.82
2019-03-22T04:00:45.766Z,271.57
2019-03-22T04:03:16.927Z,208.38
2019-03-22T04:05:48.119Z,278.77
2019-03-22T04:08:19.286Z,166.90
2019-03-22T04:10:50.523Z,259.40
2019-03-22T04:13:21.679Z,228.65
2019-03-22T04:15:52.942Z,203.62
2019-03-22T04:18:24.129Z,241.90
2019-03-22T04:20:55.292Z,308.55
2019-03-22T04:23:26.423Z,253.98
2019-03-22T04:25:57.589Z,229.63
2019-03-22T04:28:28.743Z,178.65
2019-03-22T04:30:59.871Z,225.80
2019-03-22T04:33:31.085Z,211.40
2019-03-22T04:36:02.250Z,191.10
2019-03-22T04:38:33.385Z,212.05
2019-03-22T04:41:04.537Z,216.42
2019-03-22T04:43:35.676Z,165.12
2019-03-22T04:46:08.825Z,142.82
2019-03-22T04:48:40.800Z,139.70
2019-03-22T04:51:12.565Z,185.50
2019-03-22T04:53:55.968Z,208.75
2019-03-22T04:56:28.136Z,183.50
2019-03-22T04:59:02.220Z,187.00
2019-03-22T05:01:35.490Z,191.03
2019-03-22T05:04:09.643Z,203.75
2019-03-22T05:06:42.668Z,194.85
2019-03-22T05:09:15.745Z,126.72
2019-03-22T05:11:49.515Z,199.17
2019-03-22T05:14:21.895Z,212.08
2019-03-22T05:16:55.712Z,202.38
2019-03-22T05:19:29.914Z,172.22
2019-03-22T05:22:03.375Z,111.42
2019-03-22T05:24:37.622Z,159.20
2019-03-22T05:27:10.116Z,175.03
2019-03-22T05:29:43.338Z,222.02
2019-03-22T05:32:17.794Z,170.07
2019-03-22T05:34:49.012Z,156.22
2019-03-22T05:37:20.231Z,186.47
2019-03-22T05:39:51.673Z,254.60
2019-03-22T05:42:22.866Z,301.20
2019-03-22T05:44:54.041Z,259.70
2019-03-22T05:47:25.203Z,236.80
2019-03-22T05:49:56.379Z,262.85
2019-03-22T05:52:27.630Z,244.60
2019-03-22T05:54:58.778Z,216.57
2019-03-22T05:57:32.992Z,287.33
2019-03-22T06:00:04.743Z,154.20
2019-03-22T06:02:35.982Z,177.55
2019-03-22T06:05:07.915Z,263.15
2019-03-22T06:07:39.112Z,199.00
2019-03-22T06:10:10.326Z,225.72
2019-03-22T06:12:41.536Z,198.43
2019-03-22T06:15:13.007Z,229.13
2019-03-22T06:17:51.572Z,257.07
2019-03-22T06:20:17.162Z,146.32
2019-03-22T06:22:48.320Z,297.65
2019-03-22T06:25:19.562Z,230.77
2019-03-22T06:27:50.795Z,302.73
2019-03-22T06:30:22.033Z,271.75
2019-03-22T06:32:53.245Z,215.03
2019-03-22T06:35:24.426Z,157.43
2019-03-22T06:37:55.809Z,268.05
2019-03-22T06:40:27.022Z,213.75
2019-03-22T06:42:58.228Z,209.52
2019-03-22T06:45:29.406Z,150.93
2019-03-22T06:48:00.638Z,205.70
2019-03-22T06:50:31.855Z,162.95
2019-03-22T06:53:03.034Z,249.70
2019-03-22T06:55:34.404Z,179.60
2019-03-22T06:58:05.666Z,186.73
2019-03-22T07:00:36.832Z,184.45
2019-03-22T07:03:07.988Z,174.55
2019-03-22T07:05:39.248Z,205.83
2019-03-22T07:08:10.437Z,179.47
2019-03-22T07:10:41.664Z,106.70
2019-03-22T07:13:12.835Z,191.30
2019-03-22T07:15:44.033Z,185.05
2019-03-22T07:18:15.156Z,217.30
2019-03-22T07:20:46.325Z,222.93
2019-03-22T07:23:17.473Z,166.12
2019-03-22T07:25:48.699Z,196.45
2019-03-22T07:28:19.946Z,181.47
2019-03-22T07:30:51.173Z,210.63
2019-03-22T07:33:22.333Z,219.87
2019-03-22T07:35:53.503Z,202.38
2019-03-22T07:38:24.695Z,213.40
2019-03-22T07:40:55.854Z,264.35
2019-03-22T07:43:27.014Z,149.93
2019-03-22T07:45:58.158Z,223.50
2019-03-22T07:48:29.318Z,151.02
2019-03-22T07:51:00.507Z,158.45
2019-03-22T07:53:31.667Z,139.68
2019-03-22T07:56:02.809Z,103.47
2019-03-22T07:58:34.025Z,127.85
2019-03-22T08:01:05.315Z,173.35
2019-03-22T08:03:36.465Z,144.70
2019-03-22T08:06:07.811Z,146.87
2019-03-22T08:08:39.005Z,179.30
2019-03-22T08:11:10.257Z,125.05
2019-03-22T08:13:42.996Z,96.30
2019-03-22T08:16:14.251Z,131.67
2019-03-22T08:18:45.411Z,105.63
2019-03-22T08:21:16.598Z,144.53
2019-03-22T08:23:47.748Z,96.10
2019-03-22T08:26:18.938Z,107.78
2019-03-22T08:28:50.177Z,90.90
2019-03-22T08:31:21.357Z,96.90
2019-03-22T08:33:53.906Z,96.57
2019-03-22T08:36:25.249Z,103.35
2019-03-22T08:38:56.393Z,84.58
2019-03-22T08:41:27.634Z,89.20
2019-03-22T08:43:58.880Z,85.30
2019-03-22T08:46:30.061Z,89.85
2019-03-22T08:49:01.401Z,87.97
2019-03-22T08:51:32.636Z,85.50
2019-03-22T08:54:03.910Z,81.08
2019-03-22T08:56:36.276Z,86.97
2019-03-22T08:59:07.879Z,90.30
2019-03-22T09:01:39.040Z,94.10
2019-03-22T09:04:10.178Z,85.30
2019-03-22T09:06:41.433Z,84.28
2019-03-22T09:09:13.014Z,87.08
2019-03-22T09:11:44.235Z,82.35
2019-03-22T09:14:15.488Z,79.05
2019-03-22T09:16:46.702Z,75.32
2019-03-22T09:19:17.880Z,76.53
2019-03-22T09:21:49.127Z,75.47
2019-03-22T09:24:20.294Z,83.90
2019-03-22T09:26:51.439Z,73.83
2019-03-22T09:29:22.697Z,77.08
2019-03-22T09:31:54.052Z,81.00
2019-03-22T09:34:33.534Z,69.32
2019-03-22T09:36:58.288Z,74.25
2019-03-22T09:39:29.468Z,71.72
2019-03-22T09:42:00.630Z,76.67
2019-03-22T09:44:42.835Z,68.02
2019-03-22T09:47:04.897Z,67.00
2019-03-22T09:49:36.142Z,60.40
2019-03-22T09:52:07.321Z,61.68
2019-03-22T09:54:38.552Z,57.35
2019-03-22T09:57:09.851Z,56.08
2019-03-22T09:59:41.050Z,57.20
2019-03-22T10:02:12.235Z,57.98
2019-03-22T10:04:43.440Z,52.93
2019-03-22T10:07:14.757Z,55.33
2019-03-22T10:09:46.010Z,51.63
2019-03-22T10:12:17.218Z,50.00
2019-03-22T10:14:48.351Z,54.73
2019-03-22T10:17:19.582Z,53.20
2019-03-22T10:19:50.766Z,53.58
2019-03-22T10:22:21.936Z,54.27
2019-03-22T10:24:53.145Z,52.40
2019-03-22T10:27:24.332Z,52.40
2019-03-22T10:29:55.535Z,54.03
2019-03-22T10:32:26.751Z,50.20
2019-03-22T10:34:58.064Z,47.88
2019-03-22T10:37:29.259Z,49.73
2019-03-22T10:40:00.569Z,51.45
2019-03-22T10:42:31.829Z,50.43
2019-03-22T10:45:03.059Z,49.55
2019-03-22T10:47:34.256Z,44.63
2019-03-22T10:50:06.184Z,44.88
2019-03-22T10:52:37.437Z,41.05
2019-03-22T10:55:28.572Z,45.35
2019-03-22T10:57:42.269Z,44.55
2019-03-22T11:00:17.623Z,44.35
2019-03-22T11:02:48.832Z,41.83
2019-03-22T11:05:19.964Z,45.40
2019-03-22T11:07:51.183Z,43.68
2019-03-22T11:10:22.415Z,44.30
2019-03-22T11:12:53.601Z,41.20
2019-03-22T11:15:24.760Z,40.78
2019-03-22T11:17:55.929Z,42.95
2019-03-22T11:20:27.118Z,41.88
2019-03-22T11:22:58.392Z,38.67
2019-03-22T11:25:29.588Z,38.45
2019-03-22T11:28:00.793Z,38.65
2019-03-22T11:30:31.998Z,35.55
2019-03-22T11:33:03.168Z,35.43
2019-03-22T11:35:34.330Z,36.83
2019-03-22T11:38:05.517Z,37.93
2019-03-22T11:40:36.685Z,36.70
2019-03-22T11:43:08.789Z,37.93
2019-03-22T11:45:40.450Z,34.98
2019-03-22T11:48:11.624Z,38.98
2019-03-22T11:50:42.767Z,39.05
2019-03-22T11:53:14.037Z,40.40
2019-03-22T11:55:45.311Z,41.73
2019-03-22T11:58:16.519Z,40.45
2019-03-22T12:00:47.706Z,34.92
2019-03-22T12:03:18.909Z,35.10
2019-03-22T12:05:50.096Z,34.92
2019-03-22T12:08:21.264Z,37.83
2019-03-22T12:10:52.474Z,37.10
2019-03-22T12:13:23.644Z,41.05
2019-03-22T12:15:54.871Z,39.00
2019-03-22T12:18:26.082Z,44.30
2019-03-22T12:20:57.314Z,41.37
2019-03-22T12:23:28.563Z,40.05
2019-03-22T12:25:59.781Z,40.92
2019-03-22T12:28:30.989Z,40.33
2019-03-22T12:31:02.385Z,43.50
2019-03-22T12:33:33.817Z,44.30
2019-03-22T12:36:05.064Z,38.55
2019-03-22T12:38:36.282Z,38.95
2019-03-22T12:41:07.476Z,40.85
2019-03-22T12:43:38.620Z,41.20
2019-03-22T12:46:09.826Z,36.73
2019-03-22T12:48:40.994Z,37.28
2019-03-22T12:51:12.156Z,38.28
2019-03-22T12:53:43.336Z,37.40
2019-03-22T12:56:14.497Z,34.05
2019-03-22T12:58:45.708Z,28.50
2019-03-22T13:01:16.914Z,30.23
2019-03-22T13:03:48.071Z,30.23
2019-03-22T13:06:19.233Z,29.95
2019-03-22T13:08:50.457Z,27.37
2019-03-22T13:11:21.625Z,28.75
2019-03-22T13:13:52.826Z,24.77
2019-03-22T13:16:23.989Z,26.35
2019-03-22T13:18:55.191Z,24.45
2019-03-22T13:21:26.346Z,24.37
2019-03-22T13:23:57.548Z,22.60
2019-03-22T13:26:28.691Z,22.67
2019-03-22T13:28:59.934Z,23.40
2019-03-22T13:31:31.149Z,20.30
2019-03-22T13:34:02.284Z,23.42
2019-03-22T13:36:33.442Z,21.68
2019-03-22T13:39:06.296Z,20.02
2019-03-22T13:41:37.495Z,25.10
2019-03-22T13:44:08.650Z,21.57
2019-03-22T13:46:40.706Z,23.00
2019-03-22T13:49:12.125Z,29.50
2019-03-22T13:51:43.271Z,29.60
2019-03-22T13:54:14.439Z,26.73
2019-03-22T13:56:45.637Z,28.23
2019-03-22T13:59:16.809Z,27.77
2019-03-22T14:01:48.028Z,24.72
2019-03-22T14:04:19.240Z,26.68
2019-03-22T14:06:50.381Z,26.02
2019-03-22T14:09:21.586Z,27.77
2019-03-22T14:11:52.773Z,27.60
2019-03-22T14:14:23.932Z,32.23
2019-03-22T14:16:55.133Z,30.12
2019-03-22T14:19:26.293Z,29.05
2019-03-22T14:21:57.453Z,32.38
2019-03-22T14:24:28.715Z,29.25
2019-03-22T14:27:00.006Z,28.02
2019-03-22T14:29:31.341Z,32.75
2019-03-22T14:32:02.520Z,30.85
2019-03-22T14:34:33.705Z,30.02
2019-03-22T14:37:04.905Z,31.60
2019-03-22T14:39:36.076Z,33.35
2019-03-22T14:42:07.262Z,32.63
2019-03-22T14:44:38.479Z,28.95
2019-03-22T14:47:09.657Z,27.13
2019-03-22T14:49:40.856Z,26.85
2019-03-22T14:52:12.111Z,28.30
2019-03-22T14:54:43.267Z,32.48
2019-03-22T14:57:14.432Z,33.58
2019-03-22T14:59:45.627Z,30.77
2019-03-22T15:02:16.791Z,31.33
2019-03-22T15:04:47.979Z,29.57
2019-03-22T15:07:20.079Z,31.45
2019-03-22T15:09:51.646Z,27.27
2019-03-22T15:12:23.473Z,32.15
2019-03-22T15:15:13.590Z,28.20
2019-03-22T15:18:02.408Z,34.63
2019-03-22T15:21:07.622Z,32.05
2019-03-22T15:24:12.899Z,26.90
2019-03-22T15:27:14.918Z,29.50
2019-03-22T15:30:04.268Z,29.77
2019-03-22T15:32:48.542Z,30.20
2019-03-22T15:35:50.441Z,34.80
2019-03-22T15:41:52.085Z,33.80
2019-03-22T15:46:54.427Z,37.35
2019-03-22T15:49:25.581Z,32.23
2019-03-22T15:51:56.774Z,33.90
2019-03-22T15:54:27.969Z,33.88
2019-03-22T15:56:59.163Z,32.75
2019-03-22T15:59:30.386Z,35.65
2019-03-22T16:02:01.572Z,31.50
2019-03-22T16:04:32.760Z,36.53
2019-03-22T16:07:03.957Z,33.02
2019-03-22T16:09:35.118Z,33.80
2019-03-22T16:12:06.423Z,37.33
2019-03-22T16:14:37.649Z,32.73
2019-03-22T16:17:08.811Z,37.33
2019-03-22T16:19:40.070Z,35.95
2019-03-22T16:22:11.376Z,35.28
2019-03-22T16:24:42.597Z,34.90
2019-03-22T16:27:13.788Z,31.80
2019-03-22T16:29:45.029Z,37.17
2019-03-22T16:32:16.197Z,34.85
2019-03-22T16:34:47.343Z,34.58
2019-03-22T16:37:18.562Z,32.17
2019-03-22T16:39:49.735Z,29.85
2019-03-22T16:42:20.974Z,26.75
2019-03-22T16:44:52.206Z,22.27
2019-03-22T16:47:23.383Z,22.37
2019-03-22T16:49:54.608Z,25.08
2019-03-22T16:52:25.792Z,145.05
2019-03-22T16:54:56.977Z,155.90
2019-03-22T16:57:28.271Z,163.75
2019-03-22T16:59:59.470Z,158.52
2019-03-22T17:02:30.651Z,159.63
2019-03-22T17:05:02.046Z,170.32
2019-03-22T17:07:33.277Z,167.20
2019-03-22T17:10:04.592Z,159.15
2019-03-22T17:12:35.842Z,172.17
2019-03-22T17:15:07.911Z,167.65
2019-03-22T17:17:39.107Z,163.62
2019-03-22T17:20:10.402Z,170.00
2019-03-22T17:22:41.635Z,175.57
2019-03-22T17:25:12.789Z,154.68
2019-03-22T17:27:44.573Z,181.28
2019-03-22T17:30:16.292Z,173.50
2019-03-22T17:32:47.465Z,164.20
2019-03-22T17:35:18.636Z,168.37
2019-03-22T17:37:49.870Z,160.03
2019-03-22T17:40:21.080Z,155.50
2019-03-22T17:42:52.325Z,163.87
2019-03-22T17:45:23.580Z,162.25
2019-03-22T17:47:54.760Z,162.32
2019-03-22T17:50:25.913Z,167.70
2019-03-22T17:52:57.154Z,161.22
2019-03-22T17:55:28.420Z,169.55
2019-03-22T17:57:59.578Z,170.07
2019-03-22T18:00:30.780Z,171.93
2019-03-22T18:03:01.987Z,179.70
2019-03-22T18:05:33.234Z,190.85
2019-03-22T18:08:04.524Z,176.00
2019-03-22T18:10:35.684Z,181.63
2019-03-22T18:13:06.858Z,184.00
2019-03-22T18:15:38.067Z,188.25
2019-03-22T18:18:09.250Z,182.25
2019-03-22T18:20:40.611Z,181.32
2019-03-22T18:23:11.946Z,186.52
2019-03-22T18:25:43.143Z,193.40
2019-03-22T18:28:14.663Z,203.27
2019-03-22T18:30:45.882Z,196.65
2019-03-22T18:33:17.092Z,195.70
2019-03-22T18:35:48.270Z,205.07
2019-03-22T18:38:19.483Z,224.37
2019-03-22T18:40:50.731Z,236.85
2019-03-22T18:43:22.075Z,249.67
2019-03-22T18:45:53.235Z,279.87
2019-03-22T18:48:24.475Z,285.30
2019-03-22T18:50:56.883Z,279.05
2019-03-22T18:53:28.730Z,280.32
2019-03-22T18:55:59.951Z,313.25
2019-03-22T18:58:31.166Z,316.08
2019-03-22T19:01:02.399Z,316.08
2019-03-22T19:03:33.604Z,328.95
2019-03-22T19:06:04.775Z,330.35
2019-03-22T19:08:35.946Z,320.90
2019-03-22T19:11:07.238Z,353.98
2019-03-22T19:13:38.468Z,341.42
2019-03-22T19:16:09.667Z,348.65
2019-03-22T19:18:40.872Z,358.77
2019-03-22T19:21:12.157Z,368.07
2019-03-22T19:23:43.343Z,364.38
2019-03-22T19:26:14.638Z,355.75
2019-03-22T19:28:45.794Z,338.70
2019-03-22T19:31:17.076Z,328.50
2019-03-22T19:33:48.348Z,339.00
2019-03-22T19:36:19.517Z,338.60
2019-03-22T19:38:50.704Z,353.70
2019-03-22T19:41:23.792Z,369.82
2019-03-22T19:43:55.073Z,354.25
2019-03-22T19:46:26.311Z,357.00
2019-03-22T19:48:57.483Z,337.08
2019-03-22T19:51:28.737Z,367.18
2019-03-22T19:53:59.946Z,365.95
2019-03-22T19:56:31.205Z,379.87
2019-03-22T19:59:02.402Z,352.95
2019-03-22T20:01:33.607Z,352.90
2019-03-22T20:04:04.852Z,354.45
2019-03-22T20:06:36.080Z,350.45
2019-03-22T20:09:10.275Z,350.93
2019-03-22T20:11:41.528Z,361.85
2019-03-22T20:14:12.698Z,351.62
2019-03-22T20:16:43.929Z,350.05
2019-03-22T20:19:15.161Z,376.20
2019-03-22T20:21:46.936Z,350.93
2019-03-22T20:24:18.206Z,343.60
2019-03-22T20:26:49.438Z,335.35
2019-03-22T20:29:20.589Z,343.55
2019-03-22T20:31:51.781Z,350.62
2019-03-22T20:34:23.035Z,309.73
2019-03-22T20:36:54.307Z,308.20
2019-03-22T20:39:25.525Z,317.52
2019-03-22T20:41:56.749Z,324.82
2019-03-22T20:44:33.779Z,291.15
2019-03-22T20:47:01.002Z,298.95
2019-03-22T20:49:32.238Z,291.32
2019-03-22T20:52:03.484Z,303.50
2019-03-22T20:54:34.712Z,314.90
2019-03-22T20:57:05.974Z,289.48
2019-03-22T20:59:37.158Z,238.90
2019-03-22T21:02:08.331Z,242.82
2019-03-22T21:04:39.587Z,252.72
2019-03-22T21:07:10.761Z,244.18
2019-03-22T21:09:41.994Z,245.20
2019-03-22T21:12:13.358Z,206.32
2019-03-22T21:14:44.511Z,191.35
2019-03-22T21:17:16.313Z,198.45
2019-03-22T21:19:47.719Z,206.90
2019-03-22T21:22:18.891Z,205.80
2019-03-22T21:24:50.052Z,204.57
2019-03-22T21:27:21.225Z,214.48
2019-03-22T21:29:52.459Z,217.43
2019-03-22T21:32:23.647Z,222.17
2019-03-22T21:34:54.873Z,222.05
2019-03-22T21:37:26.108Z,233.35
2019-03-22T21:39:57.310Z,222.63
2019-03-22T21:42:28.527Z,235.65
2019-03-22T21:44:59.848Z,233.38
2019-03-22T21:47:31.094Z,247.58
2019-03-22T21:50:02.269Z,225.93
2019-03-22T21:52:33.550Z,224.30
2019-03-22T21:55:04.831Z,228.50
2019-03-22T21:57:36.003Z,255.52
2019-03-22T22:00:07.930Z,245.73
2019-03-22T22:02:39.099Z,258.82
2019-03-22T22:05:10.995Z,255.35
2019-03-22T22:07:42.186Z,234.77
2019-03-22T22:10:13.409Z,232.43
2019-03-22T22:12:44.692Z,231.17
2019-03-22T22:15:15.979Z,231.50
2019-03-22T22:17:47.183Z,235.78
2019-03-22T22:20:28.527Z,231.57
2019-03-22T22:22:51.337Z,227.75
2019-03-22T22:25:22.566Z,231.30
2019-03-22T22:27:53.756Z,224.35
2019-03-22T22:30:24.949Z,216.27
2019-03-22T22:32:56.176Z,230.35
2019-03-22T22:35:27.342Z,216.60
2019-03-22T22:37:58.530Z,236.40
2019-03-22T22:40:29.787Z,228.50
2019-03-22T22:43:01.016Z,242.35
2019-03-22T22:45:32.366Z,241.15
2019-03-22T22:48:03.706Z,239.50
2019-03-22T22:50:34.917Z,216.85
2019-03-22T22:53:06.140Z,196.75
2019-03-22T22:55:37.617Z,194.13
2019-03-22T22:58:08.876Z,197.30
2019-03-22T23:00:40.382Z,189.43
2019-03-22T23:03:11.547Z,183.18
2019-03-22T23:05:42.720Z,171.18
2019-03-22T23:08:13.979Z,159.15
2019-03-22T23:10:45.196Z,144.28
2019-03-22T23:13:16.453Z,138.77
2019-03-22T23:15:47.643Z,145.32
2019-03-22T23:18:18.835Z,136.77
2019-03-22T23:20:50.031Z,145.12
2019-03-22T23:23:21.254Z,132.07
2019-03-22T23:25:52.507Z,135.25
2019-03-22T23:28:23.834Z,124.05
2019-03-22T23:30:55.048Z,133.67
2019-03-22T23:33:26.241Z,125.58
2019-03-22T23:35:57.407Z,124.00
2019-03-22T23:38:28.684Z,105.15
2019-03-22T23:41:00.155Z,120.85
2019-03-22T23:43:31.392Z,115.05
2019-03-22T23:46:02.586Z,112.60
2019-03-22T23:48:33.789Z,111.42
2019-03-22T23:51:04.949Z,104.07
2019-03-22T23:53:36.205Z,110.30
2019-03-22T23:56:07.381Z,105.70
2019-03-22T23:58:39.335Z,100.35
